Time;durP1;ratioP1;P1;durP2;ratioP2;P2;SDS_P1;SDS_P2;PMS_P1;PMS_P2;Temp;Humidity;BMP_temperature;BMP_pressure;BME280_temperature;BME280_humidity;BME280_pressure;Samples;Min_cycle;Max_cycle;Signal;HPM_P1;HPM_P2
2024/01/08 00:00:22;;;;;;;4.88;3.40;;;;;;;-2.10;100.00;102936.13;5114458;28;20044;-68
2024/01/08 00:03:10;;;;;;;5.90;3.30;;;;;;;-2.07;100.00;102927.84;5095093;28;20052;-67
2024/01/08 00:05:58;;;;;;;6.78;3.58;;;;;;;-2.06;100.00;102924.22;5094793;28;20040;-67
2024/01/08 00:08:46;;;;;;;5.13;3.35;;;;;;;-1.91;100.00;102930.91;5103876;28;20047;-67
2024/01/08 00:11:34;;;;;;;4.90;3.28;;;;;;;-1.81;100.00;102918.41;5099814;27;20077;-68
2024/01/08 00:14:22;;;;;;;8.32;4.93;;;;;;;-1.73;97.80;102921.28;5099661;28;20047;-66
2024/01/08 00:17:10;;;;;;;8.40;5.20;;;;;;;-1.67;97.70;102919.03;5099407;28;20044;-67
2024/01/08 00:19:58;;;;;;;7.72;4.80;;;;;;;-1.68;97.93;102917.34;5101129;28;20040;-68
2024/01/08 00:22:46;;;;;;;13.52;8.43;;;;;;;-1.84;96.04;102929.38;5079938;28;20051;-66
2024/01/08 00:25:34;;;;;;;19.63;10.50;;;;;;;-2.06;96.97;102929.56;5128885;27;20046;-67
2024/01/08 00:28:22;;;;;;;17.17;11.48;;;;;;;-1.91;98.68;102928.22;5126976;27;20109;-67
2024/01/08 00:31:10;;;;;;;15.23;10.05;;;;;;;-1.75;97.91;102925.91;5081420;28;20099;-67
2024/01/08 00:33:58;;;;;;;13.02;8.00;;;;;;;-1.74;98.02;102930.25;5095312;28;20058;-67
2024/01/08 00:36:47;;;;;;;14.32;7.53;;;;;;;-1.68;97.71;102922.69;5100208;28;20067;-67
2024/01/08 00:39:35;;;;;;;12.85;6.72;;;;;;;-1.75;98.40;102936.59;5100765;27;20127;-67
2024/01/08 00:42:23;;;;;;;12.15;6.97;;;;;;;-1.77;98.28;102925.19;5096559;28;20112;-67
2024/01/08 00:45:11;;;;;;;11.30;6.35;;;;;;;-1.73;98.93;102925.78;5115942;28;20040;-67
2024/01/08 00:47:59;;;;;;;10.63;5.85;;;;;;;-1.75;99.67;102928.59;5115282;27;20042;-66
2024/01/08 00:50:48;;;;;;;9.13;5.70;;;;;;;-1.69;99.71;102921.84;5111187;27;20185;-66
2024/01/08 00:53:36;;;;;;;10.43;6.80;;;;;;;-1.66;99.12;102934.09;5099277;28;20039;-68
2024/01/08 00:56:24;;;;;;;13.65;8.25;;;;;;;-1.63;97.87;102925.81;5114970;28;20044;-68
2024/01/08 00:59:12;;;;;;;13.68;8.45;;;;;;;-1.82;97.04;102924.75;5098140;28;20044;-68
2024/01/08 01:02:00;;;;;;;11.55;7.65;;;;;;;-1.85;95.87;102929.50;5099406;28;20411;-67
2024/01/08 01:04:48;;;;;;;10.90;6.82;;;;;;;-1.81;97.07;102923.75;5114355;28;20051;-66
2024/01/08 01:07:36;;;;;;;9.52;6.10;;;;;;;-1.76;95.32;102931.38;5102641;27;20040;-67
2024/01/08 01:10:24;;;;;;;8.73;5.22;;;;;;;-1.90;94.28;102927.25;5093812;28;20051;-67
2024/01/08 01:13:13;;;;;;;9.43;4.80;;;;;;;-1.90;94.16;102929.94;5078230;28;20197;-67
2024/01/08 01:16:01;;;;;;;10.27;5.60;;;;;;;-1.83;93.87;102933.72;5126963;27;20474;-68
2024/01/08 01:18:49;;;;;;;9.18;5.50;;;;;;;-1.80;94.43;102946.00;5096659;28;20113;-68
2024/01/08 01:21:37;;;;;;;8.00;4.95;;;;;;;-1.78;94.40;102942.22;5111978;27;20039;-67
2024/01/08 01:24:25;;;;;;;8.45;5.43;;;;;;;-1.82;94.50;102943.47;5113482;28;20492;-68
2024/01/08 01:27:13;;;;;;;7.82;5.03;;;;;;;-1.75;94.59;102941.09;5080932;28;20435;-66
2024/01/08 01:30:03;;;;;;;7.97;4.95;;;;;;;-1.81;94.37;102938.94;5084824;28;20134;-68
2024/01/08 01:32:51;;;;;;;7.32;4.70;;;;;;;-1.86;95.42;102944.69;5114210;28;20396;-67
2024/01/08 01:35:39;;;;;;;12.40;4.53;;;;;;;-1.95;97.09;102942.81;5113877;28;20043;-67
2024/01/08 01:38:27;;;;;;;5.70;4.03;;;;;;;-1.99;98.53;102936.91;5111289;28;20044;-68
2024/01/08 01:41:15;;;;;;;8.32;4.43;;;;;;;-2.08;98.85;102939.53;5084101;28;20047;-67
2024/01/08 01:44:04;;;;;;;5.55;3.95;;;;;;;-2.13;100.00;102945.25;5098076;28;20047;-67
2024/01/08 01:46:52;;;;;;;6.68;4.10;;;;;;;-2.08;100.00;102947.53;5113886;28;20039;-67
2024/01/08 01:49:40;;;;;;;7.20;3.70;;;;;;;-2.17;100.00;102947.34;5103359;27;20446;-69
2024/01/08 01:52:28;;;;;;;7.80;4.20;;;;;;;-2.26;100.00;102947.28;5107358;28;20050;-67
2024/01/08 01:55:16;;;;;;;5.55;3.88;;;;;;;-2.23;100.00;102949.72;5098732;28;20172;-69
2024/01/08 01:58:04;;;;;;;5.57;3.72;;;;;;;-2.23;99.75;102961.22;5113302;28;20043;-68
2024/01/08 02:00:52;;;;;;;6.28;3.70;;;;;;;-2.25;98.92;102957.84;5098531;28;20407;-69
2024/01/08 02:03:41;;;;;;;5.88;3.65;;;;;;;-2.25;97.74;102955.16;5117905;27;20039;-68
2024/01/08 02:06:29;;;;;;;7.07;3.50;;;;;;;-2.29;97.81;102955.56;5119490;27;20520;-66
2024/01/08 02:09:18;;;;;;;4.93;3.53;;;;;;;-2.32;97.86;102961.16;5117179;27;20046;-67
2024/01/08 02:12:06;;;;;;;8.65;4.00;;;;;;;-2.29;98.97;102960.91;5069836;28;20074;-68
2024/01/08 02:14:54;;;;;;;5.80;3.67;;;;;;;-2.26;98.81;102966.84;5095641;27;20563;-67
2024/01/08 02:17:42;;;;;;;5.03;3.58;;;;;;;-2.31;98.26;102963.69;5113823;27;20050;-67
2024/01/08 02:20:31;;;;;;;6.57;4.00;;;;;;;-2.45;98.98;102962.22;5112096;28;20177;-66
2024/01/08 02:23:19;;;;;;;7.32;4.10;;;;;;;-2.55;99.67;102957.75;5120855;27;20051;-67
2024/01/08 02:26:08;;;;;;;9.15;4.30;;;;;;;-2.61;99.52;102973.31;5127049;27;20065;-68
2024/01/08 02:28:56;;;;;;;6.65;4.10;;;;;;;-2.47;100.00;102963.31;5112235;28;20055;-69
2024/01/08 02:31:44;;;;;;;8.07;4.30;;;;;;;-2.49;99.83;102967.94;5093404;28;20499;-67
2024/01/08 02:34:32;;;;;;;6.18;3.95;;;;;;;-2.50;99.86;102964.41;5102290;28;20141;-66
2024/01/08 02:37:20;;;;;;;8.05;4.35;;;;;;;-2.42;100.00;102977.13;5097545;28;20454;-68
2024/01/08 02:40:08;;;;;;;7.03;4.28;;;;;;;-2.35;100.00;102959.59;5105895;28;20040;-68
2024/01/08 02:42:56;;;;;;;6.47;4.20;;;;;;;-2.40;99.85;102960.00;5093039;28;20043;-68
2024/01/08 02:45:44;;;;;;;6.25;4.22;;;;;;;-2.43;100.00;102978.94;5092303;28;20126;-69
2024/01/08 02:48:32;;;;;;;7.15;4.32;;;;;;;-2.41;100.00;102979.63;5110084;28;20407;-67
2024/01/08 02:51:20;;;;;;;6.57;4.40;;;;;;;-2.40;100.00;102972.50;5092821;28;20055;-67
2024/01/08 02:54:08;;;;;;;7.65;4.53;;;;;;;-2.62;100.00;102971.63;5110871;28;20169;-69
2024/01/08 02:56:57;;;;;;;7.05;4.65;;;;;;;-2.58;100.00;102964.19;5113365;28;20412;-68
2024/01/08 02:59:46;;;;;;;7.78;4.68;;;;;;;-2.57;100.00;102972.09;5097847;28;20036;-69
2024/01/08 03:02:34;;;;;;;8.68;4.40;;;;;;;-2.55;100.00;102961.25;5111732;28;20040;-67
2024/01/08 03:05:22;;;;;;;6.93;4.40;;;;;;;-2.57;100.00;102964.06;5124016;27;20048;-67
2024/01/08 03:08:10;;;;;;;6.53;4.07;;;;;;;-2.57;100.00;102966.75;5116817;28;20047;-67
2024/01/08 03:10:58;;;;;;;6.78;4.50;;;;;;;-2.49;100.00;102966.09;5100340;28;20119;-67
2024/01/08 03:13:46;;;;;;;6.43;4.43;;;;;;;-2.58;100.00;102973.03;5109786;27;20067;-67
2024/01/08 03:16:34;;;;;;;7.78;4.32;;;;;;;-2.61;100.00;102967.97;5136425;27;20080;-67
2024/01/08 03:19:22;;;;;;;7.20;4.55;;;;;;;-2.65;100.00;102971.84;5121855;27;20126;-67
2024/01/08 03:22:10;;;;;;;8.07;4.50;;;;;;;-2.64;100.00;102978.06;5101161;28;20079;-67
2024/01/08 03:24:58;;;;;;;8.25;4.15;;;;;;;-2.71;100.00;102983.06;5130944;27;20129;-66
2024/01/08 03:27:46;;;;;;;7.38;4.88;;;;;;;-2.71;100.00;102967.06;5136436;27;20490;-66
2024/01/08 03:30:34;;;;;;;7.20;4.30;;;;;;;-2.62;100.00;102973.47;5137378;27;20043;-70
2024/01/08 03:33:22;;;;;;;7.53;4.70;;;;;;;-2.58;100.00;102978.38;5102974;28;20043;-69
2024/01/08 03:36:11;;;;;;;8.88;4.70;;;;;;;-2.63;100.00;102977.91;5100762;28;20070;-69
2024/01/08 03:38:59;;;;;;;8.30;4.38;;;;;;;-2.65;100.00;102969.19;5115959;28;20047;-67
2024/01/08 03:41:47;;;;;;;7.45;4.78;;;;;;;-2.60;100.00;102979.47;5118465;27;20176;-67
2024/01/08 03:44:35;;;;;;;8.30;4.45;;;;;;;-2.55;100.00;102979.09;5114711;28;20043;-67
2024/01/08 03:47:23;;;;;;;7.72;4.30;;;;;;;-2.57;100.00;102972.09;5115628;28;20079;-66
2024/01/08 03:50:11;;;;;;;7.10;4.65;;;;;;;-2.57;100.00;102985.44;5100517;28;20554;-67
2024/01/08 03:53:00;;;;;;;8.77;5.15;;;;;;;-2.58;100.00;102978.38;5113232;27;20070;-66
2024/01/08 03:55:48;;;;;;;8.93;4.95;;;;;;;-2.54;100.00;102972.81;5086353;28;20054;-68
2024/01/08 03:58:37;;;;;;;7.60;4.65;;;;;;;-2.55;100.00;102973.75;5114074;28;20043;-67
2024/01/08 04:01:25;;;;;;;7.75;4.45;;;;;;;-2.54;100.00;102970.97;5073646;28;20083;-67
2024/01/08 04:04:14;;;;;;;6.85;4.20;;;;;;;-2.60;100.00;102967.00;5134787;27;20089;-68
2024/01/08 04:07:02;;;;;;;9.27;5.05;;;;;;;-2.55;100.00;102971.94;5127906;27;20050;-67
2024/01/08 04:09:50;;;;;;;8.35;4.63;;;;;;;-2.52;100.00;102976.19;5115284;27;20047;-66
2024/01/08 04:12:38;;;;;;;7.55;4.70;;;;;;;-2.50;100.00;102968.88;5113191;28;20136;-67
2024/01/08 04:15:26;;;;;;;7.18;4.25;;;;;;;-2.57;100.00;102964.06;5129851;28;20071;-67
2024/01/08 04:18:14;;;;;;;8.23;4.53;;;;;;;-2.60;100.00;102963.47;5121545;27;20129;-68
2024/01/08 04:21:02;;;;;;;8.00;4.30;;;;;;;-2.54;100.00;102972.81;5105739;28;20047;-66
2024/01/08 04:23:50;;;;;;;8.23;4.57;;;;;;;-2.48;100.00;102978.47;5078854;28;20126;-67
2024/01/08 04:26:38;;;;;;;9.43;4.50;;;;;;;-2.49;100.00;102982.13;5080075;28;20052;-66
2024/01/08 04:29:26;;;;;;;6.75;4.03;;;;;;;-2.42;100.00;102977.13;5092374;28;20067;-66
2024/01/08 04:32:14;;;;;;;8.23;4.60;;;;;;;-2.41;100.00;102984.97;5114359;28;20099;-66
2024/01/08 04:35:03;;;;;;;8.32;4.63;;;;;;;-2.47;100.00;102976.66;5098774;28;20062;-66
2024/01/08 04:37:51;;;;;;;5.43;3.85;;;;;;;-2.44;100.00;102973.72;5113605;28;20044;-67
2024/01/08 04:40:39;;;;;;;9.88;4.78;;;;;;;-2.52;100.00;102979.72;5096141;27;20040;-69
2024/01/08 04:43:26;;;;;;;7.00;4.43;;;;;;;-2.46;100.00;102975.66;5094798;28;20405;-67
2024/01/08 04:46:15;;;;;;;9.20;4.78;;;;;;;-2.38;100.00;102967.88;5068646;27;20078;-65
2024/01/08 04:49:03;;;;;;;7.75;4.78;;;;;;;-2.39;100.00;102972.34;5115723;27;20062;-67
2024/01/08 04:51:52;;;;;;;7.28;4.50;;;;;;;-2.48;100.00;102977.63;5078755;28;20054;-68
2024/01/08 04:54:42;;;;;;;8.00;4.80;;;;;;;-2.45;100.00;102977.38;5093389;28;20135;-67
2024/01/08 04:57:30;;;;;;;7.65;4.60;;;;;;;-2.48;100.00;102978.47;5092951;28;20109;-67
2024/01/08 05:00:18;;;;;;;6.82;4.75;;;;;;;-2.47;100.00;102971.31;5080485;27;20086;-67
2024/01/08 05:03:10;;;;;;;7.50;4.45;;;;;;;-2.44;100.00;102971.88;5093790;28;20086;-67
2024/01/08 05:05:58;;;;;;;7.25;4.70;;;;;;;-2.44;100.00;102974.56;5079814;28;20103;-68
2024/01/08 05:08:46;;;;;;;8.52;5.07;;;;;;;-2.41;100.00;102968.13;5092382;28;20043;-67
2024/01/08 05:11:34;;;;;;;9.23;5.22;;;;;;;-2.45;100.00;102972.03;5075726;28;20136;-67
2024/01/08 05:14:23;;;;;;;8.48;5.45;;;;;;;-2.39;100.00;102971.50;5097085;28;20055;-67
2024/01/08 05:17:11;;;;;;;7.45;4.65;;;;;;;-2.24;100.00;102970.19;5123322;27;20103;-66
2024/01/08 05:19:59;;;;;;;9.65;5.30;;;;;;;-2.19;100.00;102972.47;5119797;27;20419;-65
2024/01/08 05:22:47;;;;;;;9.13;5.50;;;;;;;-2.22;100.00;102972.75;5103538;28;20055;-65
2024/01/08 05:25:35;;;;;;;9.18;5.40;;;;;;;-2.23;100.00;102974.59;5102110;27;20182;-66
2024/01/08 05:28:23;;;;;;;8.15;4.75;;;;;;;-2.32;100.00;102972.69;5122895;27;20138;-66
2024/01/08 05:31:11;;;;;;;8.23;5.07;;;;;;;-2.30;100.00;102968.06;5085712;28;20040;-66
2024/01/08 05:33:59;;;;;;;10.45;5.40;;;;;;;-2.34;100.00;102971.97;5078831;28;20052;-67
2024/01/08 05:36:47;;;;;;;8.88;5.40;;;;;;;-2.32;100.00;102970.00;5108641;27;20062;-66
2024/01/08 05:39:35;;;;;;;8.55;5.55;;;;;;;-2.34;100.00;102969.28;5133232;27;20122;-66
2024/01/08 05:42:23;;;;;;;8.55;5.47;;;;;;;-2.33;100.00;102968.34;5081627;28;20056;-67
2024/01/08 05:45:11;;;;;;;8.45;5.47;;;;;;;-2.32;100.00;102962.00;5104689;28;20047;-66
2024/01/08 05:47:59;;;;;;;10.25;5.57;;;;;;;-2.28;100.00;102971.47;5113415;27;20124;-66
2024/01/08 05:50:48;;;;;;;10.60;5.50;;;;;;;-2.25;100.00;102963.19;5134247;27;20296;-69
2024/01/08 05:53:36;;;;;;;10.90;5.85;;;;;;;-2.17;100.00;102966.03;5092741;28;20409;-67
2024/01/08 05:56:24;;;;;;;8.50;5.63;;;;;;;-2.17;100.00;102971.38;5091609;28;20509;-67
2024/01/08 05:59:12;;;;;;;9.48;5.30;;;;;;;-2.20;100.00;102960.13;5117624;27;20047;-67
2024/01/08 06:02:00;;;;;;;7.68;4.95;;;;;;;-2.28;100.00;102957.28;5084401;28;20059;-66
2024/01/08 06:04:48;;;;;;;8.80;5.60;;;;;;;-2.22;100.00;102964.75;5092140;28;20129;-66
2024/01/08 06:07:36;;;;;;;9.95;5.50;;;;;;;-2.26;100.00;102958.84;5092111;28;20050;-67
2024/01/08 06:10:24;;;;;;;9.18;5.68;;;;;;;-2.19;100.00;102965.34;5098549;27;20036;-67
2024/01/08 06:13:12;;;;;;;10.77;6.72;;;;;;;-2.26;100.00;102965.97;5123442;27;20043;-66
2024/01/08 06:16:00;;;;;;;9.18;6.10;;;;;;;-2.30;100.00;102970.72;5118846;27;20103;-65
2024/01/08 06:18:48;;;;;;;10.32;5.93;;;;;;;-2.37;100.00;102958.88;5084905;28;20414;-66
2024/01/08 06:21:36;;;;;;;12.23;6.38;;;;;;;-2.33;100.00;102964.78;5099162;28;20052;-66
2024/01/08 06:24:24;;;;;;;9.30;6.00;;;;;;;-2.25;100.00;102968.53;5120287;27;20058;-66
2024/01/08 06:27:12;;;;;;;10.20;6.43;;;;;;;-2.26;100.00;102961.50;5098117;28;20124;-66
2024/01/08 06:30:00;;;;;;;11.68;5.88;;;;;;;-2.28;100.00;102970.63;5112031;28;20107;-66
2024/01/08 06:32:49;;;;;;;10.60;6.00;;;;;;;-2.24;100.00;102964.84;5098754;28;20040;-68
2024/01/08 06:35:40;;;;;;;10.35;6.10;;;;;;;-2.21;100.00;102969.97;5105941;27;20091;-67
2024/01/08 06:38:28;;;;;;;10.57;6.10;;;;;;;-2.27;100.00;102958.94;5110449;28;20062;-66
2024/01/08 06:41:16;;;;;;;10.82;6.30;;;;;;;-2.15;100.00;102961.41;5103868;28;20131;-67
2024/01/08 06:44:05;;;;;;;9.77;6.45;;;;;;;-2.12;100.00;102962.13;5116740;28;20173;-67
2024/01/08 06:46:53;;;;;;;10.77;6.32;;;;;;;-2.10;100.00;102960.19;4403856;28;10000851;-69
2024/01/08 06:49:41;;;;;;;10.52;6.50;;;;;;;-2.14;100.00;102959.59;5108149;28;20653;-70
2024/01/08 06:52:29;;;;;;;10.75;6.28;;;;;;;-2.08;100.00;102953.72;5095199;28;20116;-67
2024/01/08 06:55:17;;;;;;;12.75;6.55;;;;;;;-2.02;100.00;102949.66;5109356;28;20127;-68
2024/01/08 06:58:05;;;;;;;11.18;6.65;;;;;;;-1.99;100.00;102957.44;5112451;28;20529;-68
2024/01/08 07:00:53;;;;;;;10.77;5.88;;;;;;;-2.04;100.00;102971.19;5114635;28;20073;-68
2024/01/08 07:03:42;;;;;;;10.43;6.30;;;;;;;-2.06;100.00;102958.94;5116402;28;20058;-66
2024/01/08 07:06:30;;;;;;;11.25;6.28;;;;;;;-2.05;100.00;102963.28;5082187;28;20480;-68
2024/01/08 07:09:18;;;;;;;12.30;6.25;;;;;;;-2.06;100.00;102972.31;5091678;28;20054;-70
2024/01/08 07:12:06;;;;;;;11.90;6.53;;;;;;;-2.09;100.00;102968.06;5127987;28;20126;-70
2024/01/08 07:14:54;;;;;;;12.65;6.18;;;;;;;-2.03;100.00;102974.69;5128882;28;20043;-68
2024/01/08 07:17:42;;;;;;;10.48;7.00;;;;;;;-1.98;100.00;102983.16;5125050;28;20052;-69
2024/01/08 07:20:31;;;;;;;11.60;7.22;;;;;;;-2.08;100.00;102987.59;5092683;28;20514;-66
2024/01/08 07:23:19;;;;;;;13.07;6.82;;;;;;;-2.08;100.00;102990.28;5095405;28;20126;-69
2024/01/08 07:26:07;;;;;;;10.38;6.47;;;;;;;-2.05;100.00;102990.00;5092862;28;20126;-68
2024/01/08 07:28:55;;;;;;;11.23;6.57;;;;;;;-2.04;100.00;102997.06;5100678;28;20078;-68
2024/01/08 07:31:43;;;;;;;12.45;6.80;;;;;;;-1.98;100.00;102993.84;5060443;28;20508;-68
2024/01/08 07:34:31;;;;;;;10.18;6.57;;;;;;;-2.00;100.00;102988.63;5101024;28;20108;-68
2024/01/08 07:37:19;;;;;;;11.65;6.53;;;;;;;-1.97;100.00;102992.88;5109500;28;20047;-67
2024/01/08 07:40:08;;;;;;;14.23;6.35;;;;;;;-1.96;100.00;102990.06;5079158;28;20096;-66
2024/01/08 07:42:57;;;;;;;11.48;6.25;;;;;;;-1.95;100.00;102993.56;5079078;28;20374;-67
2024/01/08 07:45:45;;;;;;;13.98;7.07;;;;;;;-1.86;100.00;102994.63;5094146;28;20467;-69
2024/01/08 07:48:33;;;;;;;10.27;6.38;;;;;;;-1.83;100.00;103000.53;5101142;28;20075;-67
2024/01/08 07:51:24;;;;;;;12.90;6.78;;;;;;;-1.84;100.00;103001.53;5100725;27;20058;-67
2024/01/08 07:54:12;;;;;;;12.00;6.97;;;;;;;-1.79;100.00;103006.47;5107684;27;20047;-67
2024/01/08 07:57:00;;;;;;;16.52;6.88;;;;;;;-1.75;100.00;103007.91;5135936;27;20051;-67
2024/01/08 07:59:50;;;;;;;26.20;8.82;;;;;;;-1.73;100.00;103012.13;5105704;27;20058;-66
2024/01/08 08:02:41;;;;;;;19.45;7.70;;;;;;;-1.76;100.00;103011.53;5107072;27;20043;-67
2024/01/08 08:05:30;;;;;;;10.70;6.40;;;;;;;-1.77;100.00;103004.53;5103685;28;20044;-66
2024/01/08 08:08:19;;;;;;;11.23;5.93;;;;;;;-1.78;100.00;103014.38;5093661;28;20127;-67
2024/01/08 08:11:07;;;;;;;9.05;5.80;;;;;;;-1.77;100.00;103018.72;5110278;28;20047;-67
2024/01/08 08:13:56;;;;;;;9.55;5.57;;;;;;;-1.80;100.00;103016.31;5081073;28;20127;-69
2024/01/08 08:16:44;;;;;;;17.77;7.45;;;;;;;-1.81;100.00;103000.41;5065394;28;20645;-68
2024/01/08 08:19:32;;;;;;;9.43;5.50;;;;;;;-1.80;100.00;103008.31;5094120;28;20110;-67
2024/01/08 08:22:20;;;;;;;9.23;5.50;;;;;;;-1.91;100.00;103012.88;5094671;28;20040;-67
2024/01/08 08:25:08;;;;;;;10.30;5.55;;;;;;;-1.95;100.00;103012.28;5080205;28;20127;-67
2024/01/08 08:27:56;;;;;;;8.48;5.40;;;;;;;-1.86;100.00;103019.50;5114536;27;20059;-68
2024/01/08 08:30:44;;;;;;;9.50;5.80;;;;;;;-1.87;100.00;103012.47;5087911;28;20163;-68
2024/01/08 08:33:32;;;;;;;10.45;5.95;;;;;;;-1.86;100.00;103019.50;5115406;28;20051;-67
2024/01/08 08:36:20;;;;;;;10.35;5.78;;;;;;;-1.95;100.00;103012.28;5119668;28;20112;-68
2024/01/08 08:39:08;;;;;;;8.82;5.32;;;;;;;-1.94;100.00;103024.66;5072589;27;20040;-68
2024/01/08 08:41:56;;;;;;;8.73;5.22;;;;;;;-1.93;100.00;103029.84;5108181;28;20099;-68
2024/01/08 08:44:44;;;;;;;11.65;5.90;;;;;;;-1.89;100.00;103034.97;5094801;28;20163;-68
2024/01/08 08:47:32;;;;;;;8.93;5.55;;;;;;;-1.95;100.00;103033.66;5110157;28;20095;-70
2024/01/08 08:50:20;;;;;;;10.82;5.57;;;;;;;-1.93;100.00;103034.38;5055513;28;20130;-68
2024/01/08 08:53:08;;;;;;;10.02;5.80;;;;;;;-1.88;100.00;103039.31;5116082;27;20044;-66
2024/01/08 08:55:56;;;;;;;10.18;5.68;;;;;;;-2.01;100.00;103036.84;5100512;28;20052;-67
2024/01/08 08:58:44;;;;;;;10.15;5.47;;;;;;;-1.95;100.00;103033.66;5086747;28;20048;-67
2024/01/08 09:01:32;;;;;;;9.95;5.50;;;;;;;-1.85;100.00;103034.56;5099900;28;20077;-67
2024/01/08 09:04:20;;;;;;;11.00;5.40;;;;;;;-1.86;100.00;103035.53;5114202;27;20052;-66
2024/01/08 09:07:13;;;;;;;9.23;5.22;;;;;;;-1.88;100.00;103033.97;5099142;28;20039;-66
2024/01/08 09:10:02;;;;;;;11.32;5.47;;;;;;;-1.90;100.00;103042.13;5071949;28;20054;-66
2024/01/08 09:12:50;;;;;;;9.10;5.30;;;;;;;-1.87;100.00;103041.88;5099434;28;20055;-67
2024/01/08 09:15:38;;;;;;;8.55;5.00;;;;;;;-1.95;100.00;103042.53;5099460;28;20132;-67
2024/01/08 09:18:26;;;;;;;9.45;5.35;;;;;;;-1.98;100.00;103044.59;5113662;28;20071;-66
2024/01/08 09:21:15;;;;;;;9.02;5.15;;;;;;;-1.98;100.00;103049.94;5099851;28;20048;-66
2024/01/08 09:24:05;;;;;;;12.80;5.30;;;;;;;-1.90;100.00;103051.97;5084296;28;20040;-66
2024/01/08 09:26:53;;;;;;;9.57;5.40;;;;;;;-1.96;100.00;103048.00;5099382;28;20039;-66
2024/01/08 09:29:41;;;;;;;10.75;5.07;;;;;;;-1.95;100.00;103052.34;5098663;27;20577;-66
2024/01/08 09:32:29;;;;;;;10.38;5.63;;;;;;;-1.97;100.00;103057.00;5113464;28;20130;-66
2024/01/08 09:35:17;;;;;;;8.23;5.00;;;;;;;-1.84;100.00;103056.78;5098639;28;20505;-67
2024/01/08 09:38:05;;;;;;;9.45;5.00;;;;;;;-1.83;100.00;103058.47;5097761;28;20055;-67
2024/01/08 09:40:53;;;;;;;10.00;5.35;;;;;;;-1.80;100.00;103064.41;5113988;28;20051;-67
2024/01/08 09:43:48;;;;;;;10.23;5.03;;;;;;;-1.75;100.00;103062.19;5098609;28;20518;-67
2024/01/08 09:46:43;;;;;;;8.73;4.93;;;;;;;-1.60;100.00;103064.53;5113720;28;20055;-66
2024/01/08 09:49:32;;;;;;;9.43;4.70;;;;;;;-1.67;100.00;103066.03;5099370;28;20105;-67
2024/01/08 09:52:22;;;;;;;8.23;4.90;;;;;;;-1.64;100.00;103069.28;5113409;28;20066;-66
2024/01/08 09:55:20;;;;;;;7.70;4.75;;;;;;;-1.61;100.00;103073.50;5116668;27;20419;-65
2024/01/08 09:58:10;;;;;;;7.82;4.53;;;;;;;-1.64;100.00;103068.44;5118387;27;20040;-67
2024/01/08 10:00:58;;;;;;;8.57;5.32;;;;;;;-1.75;100.00;103072.88;5119486;27;20115;-67
2024/01/08 10:03:47;;;;;;;8.68;4.68;;;;;;;-1.75;100.00;103077.38;5117817;27;20491;-67
2024/01/08 10:06:35;;;;;;;8.02;4.78;;;;;;;-1.70;100.00;103079.66;5103297;28;20402;-67
2024/01/08 10:09:24;;;;;;;10.13;5.03;;;;;;;-1.75;100.00;103067.53;5113266;28;20065;-66
2024/01/08 10:12:12;;;;;;;9.05;5.03;;;;;;;-1.70;100.00;103068.97;5113514;28;20473;-66
2024/01/08 10:15:04;;;;;;;8.00;4.90;;;;;;;-1.77;100.00;103058.81;5099057;28;20079;-67
2024/01/08 10:17:55;;;;;;;7.90;4.72;;;;;;;-1.76;100.00;103056.97;5079391;27;20043;-67
2024/01/08 10:20:46;;;;;;;9.68;5.13;;;;;;;-1.76;100.00;103063.16;5106285;27;20066;-66
2024/01/08 10:23:34;;;;;;;9.70;5.07;;;;;;;-1.70;100.00;103052.94;5092544;27;20487;-66
2024/01/08 10:26:26;;;;;;;8.52;4.43;;;;;;;-1.61;100.00;103054.81;5117624;27;20039;-66
2024/01/08 10:29:14;;;;;;;8.05;4.93;;;;;;;-1.59;100.00;103056.38;5083971;28;20044;-67
2024/01/08 10:32:02;;;;;;;8.75;4.90;;;;;;;-1.59;100.00;103050.19;5091560;28;20083;-66
2024/01/08 10:34:51;;;;;;;9.38;5.22;;;;;;;-1.57;100.00;103042.88;5077961;28;20132;-66
2024/01/08 10:37:40;;;;;;;9.77;4.93;;;;;;;-1.46;100.00;103050.81;5091890;28;20132;-65
2024/01/08 10:40:29;;;;;;;8.85;4.97;;;;;;;-1.36;100.00;103046.34;5120916;27;20077;-66
2024/01/08 10:43:17;;;;;;;8.35;4.95;;;;;;;-1.43;100.00;103049.69;5118932;27;20047;-66
2024/01/08 10:46:06;;;;;;;9.73;4.85;;;;;;;-1.35;100.00;103056.09;5133225;27;20043;-66
2024/01/08 10:48:54;;;;;;;9.23;5.00;;;;;;;-1.48;100.00;103052.78;5118259;27;20499;-66
2024/01/08 10:51:44;;;;;;;7.53;4.80;;;;;;;-1.53;100.00;103046.97;5093962;28;20107;-68
2024/01/08 10:54:56;;;;;;;8.75;5.30;;;;;;;-1.61;100.00;103044.09;5070692;28;20044;-67
2024/01/08 10:57:57;;;;;;;8.52;5.03;;;;;;;-1.51;100.00;103034.34;5077872;28;20055;-68
2024/01/08 11:00:46;;;;;;;8.00;5.28;;;;;;;-1.50;100.00;103038.69;5110601;28;20478;-69
2024/01/08 11:03:35;;;;;;;9.02;5.60;;;;;;;-1.49;100.00;103037.72;5089169;28;20484;-68
2024/01/08 11:06:23;;;;;;;9.13;5.38;;;;;;;-1.51;100.00;103032.50;5129353;28;20047;-67
2024/01/08 11:09:25;;;;;;;9.45;5.40;;;;;;;-1.47;100.00;103022.38;5117442;28;20039;-68
2024/01/08 11:12:13;;;;;;;11.57;5.35;;;;;;;-1.44;100.00;103027.47;5114649;28;20047;-67
2024/01/08 11:15:05;;;;;;;8.52;5.25;;;;;;;-1.45;100.00;103036.47;5090091;28;20533;-67
2024/01/08 11:18:01;;;;;;;8.80;4.97;;;;;;;-1.48;100.00;103033.22;5121252;28;20043;-67
2024/01/08 11:20:51;;;;;;;9.40;5.18;;;;;;;-1.43;100.00;103031.81;5076959;28;20053;-67
2024/01/08 11:23:42;;;;;;;8.93;5.00;;;;;;;-1.38;100.00;103029.59;5084977;28;20120;-68
2024/01/08 11:26:31;;;;;;;9.88;5.38;;;;;;;-1.41;100.00;103027.19;5118354;27;20031;-70
2024/01/08 11:29:20;;;;;;;7.75;4.82;;;;;;;-1.34;100.00;103023.00;5136516;27;20039;-67
2024/01/08 11:32:53;;;;;;;8.88;4.50;;;;;;;-1.24;100.00;103033.72;5090843;27;20059;-67
2024/01/08 11:35:43;;;;;;;7.93;4.50;;;;;;;-1.31;100.00;103021.88;5078669;27;20636;-66
2024/01/08 11:38:33;;;;;;;7.53;4.68;;;;;;;-1.36;100.00;103019.63;5122233;27;20043;-70
2024/01/08 11:41:21;;;;;;;8.50;4.82;;;;;;;-1.36;100.00;103016.94;5136841;27;20051;-66
2024/01/08 11:44:10;;;;;;;6.75;3.97;;;;;;;-1.34;100.00;103020.34;5120802;27;20050;-69
2024/01/08 11:46:58;;;;;;;8.65;4.65;;;;;;;-1.33;100.00;103005.97;5116648;28;20047;-68
2024/01/08 11:49:50;;;;;;;8.35;4.63;;;;;;;-1.23;100.00;103010.50;5100355;28;20044;-67
2024/01/08 11:52:40;;;;;;;9.25;5.10;;;;;;;-1.19;100.00;103003.91;5087228;28;20082;-67
2024/01/08 11:55:31;;;;;;;8.68;4.47;;;;;;;-1.15;100.00;102994.63;5101274;28;20132;-67
2024/01/08 11:58:19;;;;;;;7.82;3.90;;;;;;;-1.17;86.31;102999.28;5115792;28;20560;-67
2024/01/08 12:01:19;;;;;;;5.90;3.67;;;;;;;-1.03;82.91;102996.22;4391048;28;10000837;-68
2024/01/08 12:04:07;;;;;;;5.68;3.33;;;;;;;-0.95;76.81;103006.22;5081131;28;20119;-68
2024/01/08 12:06:55;;;;;;;5.38;3.38;;;;;;;-0.98;73.12;103002.00;5113187;27;20078;-68
2024/01/08 12:09:43;;;;;;;5.80;3.80;;;;;;;-1.01;72.36;102983.56;5084850;28;20043;-68
2024/01/08 12:12:31;;;;;;;6.55;3.63;;;;;;;-0.97;72.86;102987.63;5096758;28;20423;-69
2024/01/08 12:15:21;;;;;;;5.97;3.40;;;;;;;-0.97;70.27;102987.63;5093134;28;20174;-69
2024/01/08 12:18:09;;;;;;;5.78;3.63;;;;;;;-0.96;69.35;102983.97;5096099;28;20186;-70
2024/01/08 12:20:57;;;;;;;6.70;3.67;;;;;;;-0.96;65.27;102993.81;5115284;27;20099;-68
2024/01/08 12:23:45;;;;;;;6.07;3.72;;;;;;;-1.00;65.72;102990.56;5088939;28;20047;-67
2024/01/08 12:26:33;;;;;;;7.00;3.83;;;;;;;-1.04;60.80;102986.47;5084800;28;20051;-68
2024/01/08 12:29:22;;;;;;;7.85;3.80;;;;;;;-1.08;60.67;102979.72;5060335;28;20052;-67
2024/01/08 12:32:13;;;;;;;8.13;3.80;;;;;;;-1.11;58.61;102985.34;5073669;28;20131;-67
2024/01/08 12:35:04;;;;;;;6.93;3.88;;;;;;;-1.04;58.75;102983.81;5091275;28;20119;-67
2024/01/08 12:37:54;;;;;;;5.50;3.40;;;;;;;-0.93;58.73;102983.69;5072559;28;20075;-67
2024/01/08 12:40:42;;;;;;;4.53;3.17;;;;;;;-0.91;56.97;102987.06;5065804;28;20048;-68
2024/01/08 12:43:33;;;;;;;4.72;3.20;;;;;;;-0.96;56.01;102983.97;5094243;28;20055;-69
2024/01/08 12:46:21;;;;;;;4.50;3.20;;;;;;;-0.99;56.19;102981.56;5096284;28;20040;-69
2024/01/08 12:49:09;;;;;;;5.45;3.30;;;;;;;-0.98;57.00;102991.28;5078012;28;20079;-69
2024/01/08 12:52:00;;;;;;;3.72;2.85;;;;;;;-0.93;56.16;102977.50;5094818;28;20415;-68
2024/01/08 12:54:48;;;;;;;7.25;3.13;;;;;;;-0.97;55.97;102976.91;5079960;28;20044;-69